Time;durP1;ratioP1;P1;durP2;ratioP2;P2;SDS_P1;SDS_P2;PMS_P1;PMS_P2;Temp;Humidity;BMP_temperature;BMP_pressure;BME280_temperature;BME280_humidity;BME280_pressure;Samples;Min_cycle;Max_cycle;Signal;HPM_P1;HPM_P2
2021/01/04 00:01:09;;;;;;;42.83;22.07;;;;;;;;;;5068198;28;20445;-69
2021/01/04 00:03:48;;;;;;;40.37;22.70;;;;;;;;;;5067178;28;20824;-69
2021/01/04 00:06:23;;;;;;;37.77;23.37;;;;;;;;;;5064731;28;20491;-69
2021/01/04 00:09:00;;;;;;;35.40;22.10;;;;;;;;;;5067110;28;20452;-70
2021/01/04 00:11:50;;;;;;;47.63;23.80;;;;;;;;;;5068950;28;20853;-70
2021/01/04 00:14:24;;;;;;;45.63;23.67;;;;;;;;;;5071251;28;20448;-70
2021/01/04 00:16:56;;;;;;;38.73;21.77;;;;;;;;;;5063746;28;20476;-70
2021/01/04 00:19:28;;;;;;;38.77;23.87;;;;;;;;;;5063915;28;20441;-70
2021/01/04 00:22:00;;;;;;;42.17;24.90;;;;;;;;;;5070162;28;20453;-70
2021/01/04 00:24:33;;;;;;;42.50;25.10;;;;;;;;;;5064109;28;20456;-70
2021/01/04 00:27:02;;;;;;;46.90;26.13;;;;;;;;;;5064051;28;20484;-70
2021/01/04 00:29:29;;;;;;;42.70;25.83;;;;;;;;;;5066762;28;20507;-70
2021/01/04 00:31:58;;;;;;;40.00;24.10;;;;;;;;;;5060286;28;20484;-70
2021/01/04 00:34:28;;;;;;;45.90;26.30;;;;;;;;;;5068429;28;20446;-70
2021/01/04 00:37:08;;;;;;;41.87;24.07;;;;;;;;;;5061061;28;20488;-69
2021/01/04 00:39:39;;;;;;;48.40;26.93;;;;;;;;;;5067125;28;20457;-70
2021/01/04 00:42:09;;;;;;;43.17;25.20;;;;;;;;;;5067064;28;20456;-70
2021/01/04 00:44:44;;;;;;;39.07;23.73;;;;;;;;;;5068600;28;20448;-70
2021/01/04 00:47:12;;;;;;;40.27;22.53;;;;;;;;;;5063879;28;21051;-70
2021/01/04 00:49:43;;;;;;;40.90;23.20;;;;;;;;;;5073105;28;20436;-70
2021/01/04 00:52:19;;;;;;;37.23;22.83;;;;;;;;;;5062827;28;20540;-69
2021/01/04 00:54:51;;;;;;;40.90;22.80;;;;;;;;;;5081502;28;20506;-69
2021/01/04 00:57:26;;;;;;;37.10;23.30;;;;;;;;;;5072104;28;20472;-70
2021/01/04 01:00:01;;;;;;;42.63;23.60;;;;;;;;;;5084531;28;20444;-69
2021/01/04 01:02:47;;;;;;;38.63;24.07;;;;;;;;;;5081734;28;20448;-70
2021/01/04 01:05:17;;;;;;;37.57;22.43;;;;;;;;;;5065295;28;20449;-70
2021/01/04 01:08:02;;;;;;;41.57;24.20;;;;;;;;;;5082445;28;20475;-70
2021/01/04 01:10:30;;;;;;;37.10;22.53;;;;;;;;;;5067726;28;20444;-70
2021/01/04 01:13:00;;;;;;;36.97;21.50;;;;;;;;;;5076550;28;20498;-69
2021/01/04 01:15:28;;;;;;;35.50;20.70;;;;;;;;;;5084847;28;20444;-70
2021/01/04 01:18:05;;;;;;;41.80;21.43;;;;;;;;;;5071599;28;20992;-69
2021/01/04 01:20:33;;;;;;;40.00;19.33;;;;;;;;;;5070869;28;20820;-69
2021/01/04 01:23:00;;;;;;;38.33;21.53;;;;;;;;;;5074940;28;20446;-69
2021/01/04 01:25:28;;;;;;;35.13;19.97;;;;;;;;;;5083064;28;20440;-69
2021/01/04 01:28:10;;;;;;;35.47;21.07;;;;;;;;;;5065457;28;20531;-69
2021/01/04 01:30:43;;;;;;;34.20;20.03;;;;;;;;;;5060380;28;20449;-69
2021/01/04 01:33:14;;;;;;;42.40;23.33;;;;;;;;;;5063506;28;20545;-69
2021/01/04 01:35:54;;;;;;;34.03;20.80;;;;;;;;;;5077235;28;20508;-70
2021/01/04 01:38:54;;;;;;;33.47;20.37;;;;;;;;;;5074282;28;20452;-69
2021/01/04 01:41:32;;;;;;;36.57;22.00;;;;;;;;;;5066238;28;20836;-69
2021/01/04 01:44:05;;;;;;;36.30;19.87;;;;;;;;;;5076817;28;20558;-69
2021/01/04 01:46:34;;;;;;;31.97;19.87;;;;;;;;;;5071905;28;20475;-70
2021/01/04 01:49:08;;;;;;;40.37;21.77;;;;;;;;;;5068111;28;20830;-70
2021/01/04 01:51:43;;;;;;;39.47;20.87;;;;;;;;;;5060665;28;20504;-69
2021/01/04 01:54:20;;;;;;;35.73;20.97;;;;;;;;;;5060174;28;20451;-69
2021/01/04 01:56:52;;;;;;;32.53;19.57;;;;;;;;;;5071628;28;20508;-69
2021/01/04 01:59:37;;;;;;;36.97;21.23;;;;;;;;;;5064660;28;20457;-70
2021/01/04 02:02:06;;;;;;;32.60;20.37;;;;;;;;;;5058180;28;20464;-70
2021/01/04 02:04:37;;;;;;;30.23;18.20;;;;;;;;;;5066553;28;20445;-70
2021/01/04 02:07:09;;;;;;;40.83;21.67;;;;;;;;;;5073235;28;20845;-70
2021/01/04 02:09:39;;;;;;;35.80;20.73;;;;;;;;;;5073260;28;20452;-69
2021/01/04 02:12:09;;;;;;;34.53;20.70;;;;;;;;;;5066834;28;20999;-69
2021/01/04 02:14:41;;;;;;;35.67;22.10;;;;;;;;;;5067249;28;20802;-69
2021/01/04 02:17:13;;;;;;;39.23;23.90;;;;;;;;;;5061496;28;20468;-69
2021/01/04 02:19:49;;;;;;;36.77;21.60;;;;;;;;;;5069104;28;20460;-69
2021/01/04 02:22:34;;;;;;;32.63;19.57;;;;;;;;;;5065958;28;20444;-69
2021/01/04 02:25:01;;;;;;;34.70;20.40;;;;;;;;;;5072214;28;20448;-70
2021/01/04 02:27:29;;;;;;;36.70;20.60;;;;;;;;;;5060579;28;21067;-69
2021/01/04 02:29:56;;;;;;;37.67;23.50;;;;;;;;;;5063227;28;20449;-69
2021/01/04 02:32:23;;;;;;;34.87;20.33;;;;;;;;;;5073881;28;21015;-70
2021/01/04 02:34:50;;;;;;;39.33;21.10;;;;;;;;;;5077656;28;20532;-70
2021/01/04 02:37:18;;;;;;;37.00;21.87;;;;;;;;;;5064101;28;20474;-70
2021/01/04 02:39:48;;;;;;;41.13;22.77;;;;;;;;;;5069370;28;21000;-70
2021/01/04 02:42:20;;;;;;;41.23;22.50;;;;;;;;;;5073887;28;20537;-69
2021/01/04 02:44:47;;;;;;;41.30;22.60;;;;;;;;;;5069686;28;20445;-69
2021/01/04 02:47:34;;;;;;;46.97;24.53;;;;;;;;;;5067466;28;20873;-69
2021/01/04 02:50:06;;;;;;;39.77;24.23;;;;;;;;;;5066742;28;20453;-70
2021/01/04 02:52:48;;;;;;;52.30;25.97;;;;;;;;;;5074532;28;20468;-69
2021/01/04 02:55:18;;;;;;;42.63;21.77;;;;;;;;;;5070813;28;20445;-70
2021/01/04 02:57:50;;;;;;;40.87;23.17;;;;;;;;;;5070864;28;20859;-70
2021/01/04 03:00:19;;;;;;;39.93;24.70;;;;;;;;;;5070507;28;20467;-70
2021/01/04 03:02:48;;;;;;;43.97;24.60;;;;;;;;;;5067817;28;20461;-70
2021/01/04 03:05:16;;;;;;;43.83;25.40;;;;;;;;;;5075651;28;20458;-69
2021/01/04 03:07:43;;;;;;;48.97;26.47;;;;;;;;;;5060060;28;20547;-69
2021/01/04 03:10:12;;;;;;;43.90;25.27;;;;;;;;;;5083382;28;20464;-70
2021/01/04 03:12:38;;;;;;;46.03;25.13;;;;;;;;;;5067613;28;20984;-70
2021/01/04 03:15:15;;;;;;;48.10;26.30;;;;;;;;;;5071842;28;20448;-69
2021/01/04 03:17:58;;;;;;;41.30;24.60;;;;;;;;;;5069201;28;21042;-69
2021/01/04 03:20:26;;;;;;;45.77;26.20;;;;;;;;;;5066014;28;20441;-69
2021/01/04 03:22:53;;;;;;;42.33;27.03;;;;;;;;;;5065146;28;21110;-70
2021/01/04 03:25:21;;;;;;;55.00;29.67;;;;;;;;;;5081545;28;20445;-70
2021/01/04 03:27:48;;;;;;;49.40;26.20;;;;;;;;;;5060156;28;20488;-69
2021/01/04 03:30:16;;;;;;;46.83;25.90;;;;;;;;;;5068071;28;20448;-69
2021/01/04 03:32:43;;;;;;;39.37;23.93;;;;;;;;;;5060011;28;20491;-69
2021/01/04 03:35:10;;;;;;;39.23;24.43;;;;;;;;;;5064280;28;20982;-69
2021/01/04 03:37:37;;;;;;;38.63;22.27;;;;;;;;;;5064672;28;20495;-69
2021/01/04 03:40:04;;;;;;;47.93;25.87;;;;;;;;;;5067748;28;20547;-70
2021/01/04 03:42:30;;;;;;;40.10;21.97;;;;;;;;;;5073869;28;20456;-69
2021/01/04 03:44:57;;;;;;;38.77;22.07;;;;;;;;;;5068574;28;21018;-69
2021/01/04 03:47:24;;;;;;;45.17;22.60;;;;;;;;;;5071322;28;20464;-69
2021/01/04 03:49:51;;;;;;;35.97;20.80;;;;;;;;;;5071995;28;20449;-70
2021/01/04 03:52:17;;;;;;;38.20;22.40;;;;;;;;;;5068924;28;20468;-69
2021/01/04 03:54:44;;;;;;;39.10;23.00;;;;;;;;;;5081159;28;20445;-69
2021/01/04 03:57:11;;;;;;;41.73;22.03;;;;;;;;;;5061378;28;20919;-70
2021/01/04 03:59:38;;;;;;;40.87;23.30;;;;;;;;;;5058488;28;20497;-70
2021/01/04 04:02:05;;;;;;;43.43;24.10;;;;;;;;;;5067657;28;20862;-69
2021/01/04 04:04:32;;;;;;;39.47;21.27;;;;;;;;;;5072270;28;20445;-70
2021/01/04 04:06:59;;;;;;;35.93;23.50;;;;;;;;;;5076868;28;20472;-70
2021/01/04 04:09:26;;;;;;;40.50;21.80;;;;;;;;;;5067970;28;20460;-70
2021/01/04 04:11:52;;;;;;;40.07;21.60;;;;;;;;;;5059886;28;20486;-70
2021/01/04 04:14:19;;;;;;;36.97;20.73;;;;;;;;;;5062867;28;20450;-69
2021/01/04 04:16:48;;;;;;;36.97;21.60;;;;;;;;;;5073248;28;20508;-70
2021/01/04 04:19:15;;;;;;;46.20;23.90;;;;;;;;;;5072658;28;20441;-70
2021/01/04 04:21:42;;;;;;;41.00;22.50;;;;;;;;;;5069581;28;20441;-70
2021/01/04 04:24:09;;;;;;;35.90;21.27;;;;;;;;;;5077786;28;20448;-69
2021/01/04 04:26:36;;;;;;;40.10;23.50;;;;;;;;;;5071216;28;20538;-69
2021/01/04 04:29:02;;;;;;;44.03;23.73;;;;;;;;;;5065526;28;20445;-69
2021/01/04 04:31:29;;;;;;;42.03;23.17;;;;;;;;;;5061111;28;20470;-69
2021/01/04 04:33:55;;;;;;;35.17;21.90;;;;;;;;;;5071062;28;20449;-70
2021/01/04 04:36:24;;;;;;;36.43;20.53;;;;;;;;;;5068249;28;20478;-70
2021/01/04 04:38:52;;;;;;;36.70;22.83;;;;;;;;;;5068818;28;21173;-70
2021/01/04 04:41:22;;;;;;;41.67;23.00;;;;;;;;;;5068759;28;20458;-69
2021/01/04 04:43:50;;;;;;;38.97;23.57;;;;;;;;;;5072811;28;20453;-70
2021/01/04 04:46:21;;;;;;;29.83;19.30;;;;;;;;;;5060206;28;20472;-69
2021/01/04 04:48:54;;;;;;;33.53;21.30;;;;;;;;;;5066944;28;21064;-69
2021/01/04 04:51:38;;;;;;;35.43;20.53;;;;;;;;;;5067040;28;21067;-70
2021/01/04 04:54:19;;;;;;;36.10;21.30;;;;;;;;;;5064737;28;20459;-70
2021/01/04 04:56:57;;;;;;;36.83;21.07;;;;;;;;;;5071037;28;20480;-70
2021/01/04 04:59:28;;;;;;;35.13;21.60;;;;;;;;;;5079354;28;20466;-70
2021/01/04 05:01:59;;;;;;;30.57;20.50;;;;;;;;;;5064048;28;20817;-70
2021/01/04 05:04:33;;;;;;;40.90;22.73;;;;;;;;;;5064957;28;20536;-69
2021/01/04 05:07:00;;;;;;;37.30;21.37;;;;;;;;;;5070469;28;20468;-69
2021/01/04 05:09:50;;;;;;;43.13;22.40;;;;;;;;;;5071128;28;20445;-69
2021/01/04 05:12:25;;;;;;;42.80;22.83;;;;;;;;;;5056403;28;20485;-69
2021/01/04 05:14:53;;;;;;;32.47;20.67;;;;;;;;;;5062925;28;20461;-70
2021/01/04 05:17:33;;;;;;;38.60;21.03;;;;;;;;;;5074970;28;20547;-69
2021/01/04 05:20:09;;;;;;;40.70;23.97;;;;;;;;;;5065794;28;20471;-69
2021/01/04 05:22:54;;;;;;;43.33;22.63;;;;;;;;;;5064666;28;20469;-69
2021/01/04 05:25:26;;;;;;;37.53;20.30;;;;;;;;;;5073099;28;20959;-70
2021/01/04 05:28:00;;;;;;;43.77;24.17;;;;;;;;;;5058328;28;20565;-69
2021/01/04 05:30:38;;;;;;;43.90;25.10;;;;;;;;;;5064004;28;20445;-69
2021/01/04 05:33:16;;;;;;;39.23;23.23;;;;;;;;;;5068722;28;20475;-69
2021/01/04 05:35:43;;;;;;;40.47;21.77;;;;;;;;;;5063541;28;20899;-69
2021/01/04 05:38:14;;;;;;;41.23;22.10;;;;;;;;;;5072380;28;20452;-69
2021/01/04 05:40:59;;;;;;;38.03;23.37;;;;;;;;;;5072634;28;20550;-69
2021/01/04 05:43:32;;;;;;;37.53;20.70;;;;;;;;;;5069748;28;20434;-69
2021/01/04 05:46:01;;;;;;;39.73;22.13;;;;;;;;;;5060935;28;20541;-70
2021/01/04 05:48:39;;;;;;;40.20;21.50;;;;;;;;;;5060904;28;20453;-69
2021/01/04 05:51:09;;;;;;;43.33;22.90;;;;;;;;;;5073855;28;20915;-69
2021/01/04 05:53:36;;;;;;;40.80;22.27;;;;;;;;;;5068776;28;20445;-69
2021/01/04 05:56:03;;;;;;;50.17;24.40;;;;;;;;;;5058809;28;20957;-69
2021/01/04 05:58:32;;;;;;;42.07;22.57;;;;;;;;;;5062246;28;20449;-70
2021/01/04 06:01:07;;;;;;;41.30;22.87;;;;;;;;;;5063549;28;20944;-69
2021/01/04 06:03:34;;;;;;;35.40;21.77;;;;;;;;;;5071450;28;20451;-70
2021/01/04 06:06:08;;;;;;;38.20;21.90;;;;;;;;;;5062385;28;20444;-69
2021/01/04 06:08:34;;;;;;;43.23;23.17;;;;;;;;;;5076784;28;20449;-70
2021/01/04 06:11:05;;;;;;;50.33;26.10;;;;;;;;;;5064237;28;20839;-69
2021/01/04 06:13:37;;;;;;;49.60;26.00;;;;;;;;;;5077195;28;20459;-69
2021/01/04 06:16:07;;;;;;;41.33;21.63;;;;;;;;;;5073250;28;20457;-70
2021/01/04 06:18:33;;;;;;;36.80;21.90;;;;;;;;;;5062925;28;20832;-69
2021/01/04 06:21:10;;;;;;;40.90;21.87;;;;;;;;;;5069152;28;20455;-69
2021/01/04 06:23:37;;;;;;;39.50;22.70;;;;;;;;;;5054233;28;20449;-69
2021/01/04 06:26:06;;;;;;;39.47;22.87;;;;;;;;;;5063597;28;20461;-70
2021/01/04 06:28:44;;;;;;;37.60;21.87;;;;;;;;;;5062832;28;20528;-70
2021/01/04 06:31:14;;;;;;;45.73;25.13;;;;;;;;;;5060650;28;20494;-70
2021/01/04 06:33:41;;;;;;;47.80;23.27;;;;;;;;;;5062127;28;20445;-69
2021/01/04 06:36:08;;;;;;;38.83;21.63;;;;;;;;;;5068198;28;20506;-69
2021/01/04 06:38:36;;;;;;;33.77;20.87;;;;;;;;;;5070749;28;20453;-69
2021/01/04 06:41:11;;;;;;;40.77;21.90;;;;;;;;;;5061807;28;20459;-70
2021/01/04 06:43:38;;;;;;;36.53;21.80;;;;;;;;;;5069031;28;20454;-69
2021/01/04 06:46:21;;;;;;;47.23;22.67;;;;;;;;;;5060000;28;20503;-69
2021/01/04 06:48:53;;;;;;;31.90;22.20;;;;;;;;;;5066887;28;20825;-69
2021/01/04 06:51:38;;;;;;;37.47;21.47;;;;;;;;;;5064821;28;20478;-69
2021/01/04 06:54:22;;;;;;;36.17;20.47;;;;;;;;;;5063448;28;20452;-69
2021/01/04 06:57:08;;;;;;;38.60;21.00;;;;;;;;;;5062580;28;20476;-69
2021/01/04 06:59:50;;;;;;;40.13;21.07;;;;;;;;;;5066308;28;20445;-69
2021/01/04 07:02:41;;;;;;;36.20;20.13;;;;;;;;;;5049477;28;20521;-69
2021/01/04 07:05:30;;;;;;;32.57;20.83;;;;;;;;;;5061251;28;20471;-69
2021/01/04 07:08:06;;;;;;;37.47;21.87;;;;;;;;;;5063574;28;20468;-69
2021/01/04 07:10:46;;;;;;;36.80;20.07;;;;;;;;;;5080014;28;20444;-69
2021/01/04 07:13:21;;;;;;;32.00;19.70;;;;;;;;;;5066006;28;20949;-69
2021/01/04 07:15:53;;;;;;;32.57;19.10;;;;;;;;;;5076456;28;21120;-69
2021/01/04 07:18:24;;;;;;;34.90;18.07;;;;;;;;;;5068055;28;20455;-69
2021/01/04 07:21:13;;;;;;;37.87;19.30;;;;;;;;;;5069295;28;20453;-69
2021/01/04 07:23:46;;;;;;;31.03;17.90;;;;;;;;;;5071348;28;20432;-69
2021/01/04 07:26:20;;;;;;;36.97;22.10;;;;;;;;;;5068554;28;20448;-69
2021/01/04 07:28:54;;;;;;;36.47;21.10;;;;;;;;;;5066436;28;20623;-69
2021/01/04 07:31:26;;;;;;;37.93;20.37;;;;;;;;;;5070542;28;20480;-69
2021/01/04 07:33:55;;;;;;;34.40;20.00;;;;;;;;;;5059582;28;20458;-69
2021/01/04 07:36:24;;;;;;;32.20;20.97;;;;;;;;;;5070298;28;20498;-69
2021/01/04 07:38:55;;;;;;;39.70;22.43;;;;;;;;;;5068349;28;20855;-69
2021/01/04 07:41:30;;;;;;;34.87;18.90;;;;;;;;;;5068749;28;20464;-69
2021/01/04 07:44:20;;;;;;;37.17;21.17;;;;;;;;;;5066154;28;20543;-69
2021/01/04 07:46:54;;;;;;;31.63;20.00;;;;;;;;;;5066198;28;20988;-69
2021/01/04 07:49:41;;;;;;;34.67;21.93;;;;;;;;;;5068090;28;20441;-69
2021/01/04 07:52:21;;;;;;;32.50;19.60;;;;;;;;;;5053555;28;20476;-69
2021/01/04 07:55:07;;;;;;;34.70;19.27;;;;;;;;;;5076410;28;20601;-69
2021/01/04 07:57:49;;;;;;;33.40;17.60;;;;;;;;;;5069536;28;20484;-69
2021/01/04 08:00:33;;;;;;;40.17;21.90;;;;;;;;;;5069183;28;20455;-69
2021/01/04 08:03:33;;;;;;;33.20;18.63;;;;;;;;;;5069151;28;20441;-69
2021/01/04 08:06:06;;;;;;;34.03;19.37;;;;;;;;;;5067591;28;20484;-69
2021/01/04 08:08:37;;;;;;;33.00;19.70;;;;;;;;;;5074591;28;20441;-69
2021/01/04 08:11:34;;;;;;;37.70;20.37;;;;;;;;;;5077823;28;20911;-69
2021/01/04 08:14:16;;;;;;;37.37;20.07;;;;;;;;;;5078221;28;20452;-69
2021/01/04 08:16:47;;;;;;;35.73;21.60;;;;;;;;;;5071104;28;20884;-69
2021/01/04 08:19:14;;;;;;;30.13;18.70;;;;;;;;;;5062652;28;20458;-69
2021/01/04 08:21:46;;;;;;;31.60;17.33;;;;;;;;;;5070711;28;20440;-68
2021/01/04 08:24:16;;;;;;;35.27;20.10;;;;;;;;;;5066271;28;20459;-69
2021/01/04 08:26:51;;;;;;;33.53;19.20;;;;;;;;;;5067807;28;21004;-69
2021/01/04 08:29:29;;;;;;;26.50;16.77;;;;;;;;;;5065528;28;20852;-69
2021/01/04 08:32:01;;;;;;;33.50;17.73;;;;;;;;;;5070060;28;20472;-68
2021/01/04 08:34:37;;;;;;;28.67;17.93;;;;;;;;;;5067146;28;20827;-69
2021/01/04 08:37:03;;;;;;;32.57;18.33;;;;;;;;;;5060791;28;20513;-69
2021/01/04 08:39:43;;;;;;;28.70;17.30;;;;;;;;;;5068918;28;20457;-69
2021/01/04 08:42:30;;;;;;;30.63;16.83;;;;;;;;;;5064246;28;20449;-69
2021/01/04 08:44:58;;;;;;;29.43;17.07;;;;;;;;;;5068910;28;20448;-68
2021/01/04 08:47:30;;;;;;;30.63;18.70;;;;;;;;;;5066806;28;20834;-69
2021/01/04 08:50:03;;;;;;;29.87;17.73;;;;;;;;;;5062717;28;20449;-69
2021/01/04 08:52:39;;;;;;;29.27;16.77;;;;;;;;;;5062158;28;20472;-69
2021/01/04 08:55:07;;;;;;;27.93;17.27;;;;;;;;;;5059997;28;20448;-69
2021/01/04 08:57:39;;;;;;;28.43;16.43;;;;;;;;;;5063280;28;20488;-69
2021/01/04 09:00:17;;;;;;;28.57;16.53;;;;;;;;;;5061703;28;20445;-69
2021/01/04 09:02:44;;;;;;;32.97;22.53;;;;;;;;;;5064726;28;20445;-69
2021/01/04 09:05:12;;;;;;;38.70;19.77;;;;;;;;;;5063990;28;20496;-69
2021/01/04 09:07:47;;;;;;;30.27;16.97;;;;;;;;;;5064031;28;20564;-69
2021/01/04 09:10:20;;;;;;;33.23;19.37;;;;;;;;;;5075592;28;21844;-69
2021/01/04 09:12:50;;;;;;;32.37;17.03;;;;;;;;;;5070749;28;20477;-68
2021/01/04 09:15:28;;;;;;;32.00;18.87;;;;;;;;;;5070660;28;20548;-68
2021/01/04 09:18:06;;;;;;;28.47;16.70;;;;;;;;;;5068084;28;21045;-68
2021/01/04 09:20:38;;;;;;;23.23;16.37;;;;;;;;;;5068114;28;20457;-68
2021/01/04 09:23:07;;;;;;;33.23;18.13;;;;;;;;;;5064989;28;20464;-70
2021/01/04 09:25:46;;;;;;;30.03;17.07;;;;;;;;;;5073255;28;20441;-67
2021/01/04 09:28:14;;;;;;;33.70;19.40;;;;;;;;;;5064950;28;20488;-68
2021/01/04 09:30:41;;;;;;;35.40;18.53;;;;;;;;;;5065523;28;20475;-69
2021/01/04 09:33:10;;;;;;;28.97;17.87;;;;;;;;;;5068122;28;20489;-68
2021/01/04 09:35:37;;;;;;;34.80;20.67;;;;;;;;;;5065934;28;20465;-69
2021/01/04 09:38:04;;;;;;;29.13;18.40;;;;;;;;;;5063783;28;20473;-69
2021/01/04 09:40:31;;;;;;;32.93;19.83;;;;;;;;;;5054342;28;21071;-68
2021/01/04 09:43:06;;;;;;;28.73;17.67;;;;;;;;;;5066433;28;20460;-70
2021/01/04 09:45:33;;;;;;;31.20;18.57;;;;;;;;;;5068239;28;20455;-69
2021/01/04 09:48:00;;;;;;;33.73;17.90;;;;;;;;;;5071147;28;20530;-68
2021/01/04 09:50:29;;;;;;;32.90;18.40;;;;;;;;;;5070399;28;20457;-68
2021/01/04 09:52:58;;;;;;;32.10;18.87;;;;;;;;;;5063140;28;20493;-68
2021/01/04 09:55:29;;;;;;;33.53;19.17;;;;;;;;;;5063813;28;20460;-68
2021/01/04 09:57:58;;;;;;;41.40;20.93;;;;;;;;;;5069805;28;21011;-69
2021/01/04 10:00:27;;;;;;;41.43;22.13;;;;;;;;;;5069104;28;20848;-68
2021/01/04 10:03:01;;;;;;;30.23;18.10;;;;;;;;;;5067918;28;20468;-69
2021/01/04 10:05:33;;;;;;;35.13;18.90;;;;;;;;;;5069857;28;20518;-69
2021/01/04 10:07:59;;;;;;;32.77;18.03;;;;;;;;;;5076680;28;20458;-68
2021/01/04 10:10:26;;;;;;;37.90;19.17;;;;;;;;;;5079071;28;20465;-68
2021/01/04 10:12:52;;;;;;;32.80;18.47;;;;;;;;;;5066170;28;20877;-69
2021/01/04 10:15:24;;;;;;;32.07;19.43;;;;;;;;;;5069725;28;20441;-68
2021/01/04 10:18:01;;;;;;;33.20;19.77;;;;;;;;;;5064743;28;20505;-68
2021/01/04 10:20:32;;;;;;;35.10;18.97;;;;;;;;;;5071437;28;20449;-68
2021/01/04 10:22:59;;;;;;;38.27;21.40;;;;;;;;;;5078282;28;20461;-69
2021/01/04 10:25:29;;;;;;;38.33;18.60;;;;;;;;;;5081463;28;20567;-69
2021/01/04 10:27:59;;;;;;;37.23;20.10;;;;;;;;;;5068249;28;20477;-69
2021/01/04 10:30:26;;;;;;;35.30;20.17;;;;;;;;;;5071072;28;20464;-68
2021/01/04 10:33:02;;;;;;;39.67;17.90;;;;;;;;;;5066095;28;20485;-69
2021/01/04 10:35:29;;;;;;;35.63;19.30;;;;;;;;;;5063910;28;20444;-69
2021/01/04 10:38:01;;;;;;;37.33;18.60;;;;;;;;;;5065317;28;20476;-69
2021/01/04 10:40:28;;;;;;;31.50;19.20;;;;;;;;;;5065983;28;20452;-70
2021/01/04 10:43:01;;;;;;;31.00;17.60;;;;;;;;;;5064035;28;20457;-68
2021/01/04 10:45:33;;;;;;;34.03;19.03;;;;;;;;;;5066649;28;20456;-68
2021/01/04 10:48:01;;;;;;;31.00;18.47;;;;;;;;;;5069775;28;20469;-69
2021/01/04 10:50:39;;;;;;;39.50;20.83;;;;;;;;;;5066799;28;20579;-69
2021/01/04 10:53:06;;;;;;;32.60;17.17;;;;;;;;;;5066302;28;20492;-69
2021/01/04 10:55:34;;;;;;;32.80;19.43;;;;;;;;;;5066440;28;20812;-69
2021/01/04 10:58:12;;;;;;;34.40;20.50;;;;;;;;;;5065507;28;20480;-69
2021/01/04 11:00:40;;;;;;;34.97;20.77;;;;;;;;;;5064504;28;20446;-71
2021/01/04 11:03:12;;;;;;;35.17;19.73;;;;;;;;;;5055359;28;20471;-69
2021/01/04 11:05:40;;;;;;;35.20;18.97;;;;;;;;;;5068882;28;20445;-70
2021/01/04 11:08:11;;;;;;;34.73;20.37;;;;;;;;;;5065899;28;20500;-69
2021/01/04 11:10:38;;;;;;;37.43;18.87;;;;;;;;;;5060436;28;20477;-69
2021/01/04 11:13:05;;;;;;;29.07;17.67;;;;;;;;;;5062190;28;20534;-69
2021/01/04 11:15:34;;;;;;;26.53;17.63;;;;;;;;;;5076070;28;20453;-69
2021/01/04 11:18:01;;;;;;;31.57;18.50;;;;;;;;;;5068516;28;20494;-69
2021/01/04 11:20:28;;;;;;;32.00;17.57;;;;;;;;;;5063556;28;20464;-69
2021/01/04 11:23:03;;;;;;;31.70;17.07;;;;;;;;;;5071482;28;20551;-69
2021/01/04 11:25:30;;;;;;;34.60;19.97;;;;;;;;;;5067500;28;20471;-69
2021/01/04 11:27:56;;;;;;;35.87;19.33;;;;;;;;;;5067767;28;20488;-69
2021/01/04 11:30:23;;;;;;;37.63;19.77;;;;;;;;;;5071633;28;20452;-69
2021/01/04 11:32:50;;;;;;;31.07;17.13;;;;;;;;;;5061026;28;20868;-71
2021/01/04 11:35:17;;;;;;;37.93;19.73;;;;;;;;;;5063202;28;20453;-69
2021/01/04 11:37:44;;;;;;;36.83;19.37;;;;;;;;;;5063445;28;20481;-69
2021/01/04 11:40:13;;;;;;;33.20;17.03;;;;;;;;;;5062152;28;20459;-70
2021/01/04 11:42:39;;;;;;;34.47;17.67;;;;;;;;;;5062448;28;20453;-69
2021/01/04 11:45:08;;;;;;;37.83;17.77;;;;;;;;;;5061700;28;20461;-69
2021/01/04 11:47:34;;;;;;;32.20;19.93;;;;;;;;;;5065224;28;20466;-69
2021/01/04 11:50:01;;;;;;;35.77;18.70;;;;;;;;;;5065965;28;20785;-70
2021/01/04 11:52:27;;;;;;;34.83;18.70;;;;;;;;;;5064349;28;20491;-70
2021/01/04 11:54:54;;;;;;;32.53;18.67;;;;;;;;;;5078359;28;20460;-69
2021/01/04 11:57:21;;;;;;;33.83;18.33;;;;;;;;;;5070116;28;20481;-68
2021/01/04 11:59:48;;;;;;;33.23;19.47;;;;;;;;;;5068428;28;20948;-70
2021/01/04 12:02:15;;;;;;;37.20;20.17;;;;;;;;;;5067879;28;20480;-69
2021/01/04 12:04:41;;;;;;;32.30;17.67;;;;;;;;;;5066906;28;20445;-69
2021/01/04 12:07:08;;;;;;;36.20;19.23;;;;;;;;;;5070018;28;21057;-69
2021/01/04 12:09:35;;;;;;;33.97;17.80;;;;;;;;;;5067584;28;20466;-69
2021/01/04 12:12:02;;;;;;;38.80;20.67;;;;;;;;;;5067310;28;20484;-68
2021/01/04 12:14:29;;;;;;;37.83;20.73;;;;;;;;;;5070624;28;20452;-69
2021/01/04 12:17:00;;;;;;;36.07;18.57;;;;;;;;;;5071829;28;20512;-68
2021/01/04 12:19:27;;;;;;;34.23;20.20;;;;;;;;;;5067675;28;20464;-69
2021/01/04 12:21:53;;;;;;;30.30;17.70;;;;;;;;;;5061517;28;21026;-69
2021/01/04 12:24:20;;;;;;;36.33;20.00;;;;;;;;;;5068056;28;20476;-68
2021/01/04 12:26:49;;;;;;;37.13;19.80;;;;;;;;;;5065215;28;20519;-68
2021/01/04 12:29:17;;;;;;;36.17;20.07;;;;;;;;;;5064473;28;20890;-68
2021/01/04 12:31:45;;;;;;;48.63;23.73;;;;;;;;;;5066121;28;20460;-69
2021/01/04 12:34:11;;;;;;;33.30;18.90;;;;;;;;;;5053214;28;20448;-69
2021/01/04 12:36:38;;;;;;;35.70;18.47;;;;;;;;;;5069441;28;20473;-70
2021/01/04 12:39:05;;;;;;;36.20;19.90;;;;;;;;;;5065519;28;20498;-69
2021/01/04 12:41:36;;;;;;;40.53;22.57;;;;;;;;;;5068389;28;20461;-69
2021/01/04 12:44:03;;;;;;;32.40;19.33;;;;;;;;;;5070902;28;20452;-68
2021/01/04 12:46:29;;;;;;;33.57;19.30;;;;;;;;;;5066056;28;20873;-69
2021/01/04 12:48:57;;;;;;;40.47;20.90;;;;;;;;;;5069867;28;20511;-68
2021/01/04 12:51:23;;;;;;;39.30;19.83;;;;;;;;;;5064585;28;20464;-68
2021/01/04 12:53:50;;;;;;;39.03;19.93;;;;;;;;;;5083455;28;20483;-68
2021/01/04 12:56:17;;;;;;;37.43;20.00;;;;;;;;;;5070865;28;20509;-69
2021/01/04 12:58:44;;;;;;;40.00;20.37;;;;;;;;;;5075569;28;20453;-68
2021/01/04 13:01:11;;;;;;;39.80;22.07;;;;;;;;;;5070926;28;20466;-68
2021/01/04 13:03:38;;;;;;;41.60;21.60;;;;;;;;;;5058589;28;20866;-67
2021/01/04 13:06:06;;;;;;;35.40;20.07;;;;;;;;;;5066115;28;20575;-68
2021/01/04 13:08:34;;;;;;;37.00;20.63;;;;;;;;;;5063257;28;20448;-68
2021/01/04 13:11:01;;;;;;;39.57;20.70;;;;;;;;;;5062764;28;20487;-68
2021/01/04 13:13:27;;;;;;;36.07;20.10;;;;;;;;;;5069132;28;20476;-69
2021/01/04 13:15:54;;;;;;;40.43;20.87;;;;;;;;;;5071268;28;20449;-69
2021/01/04 13:18:20;;;;;;;44.73;22.07;;;;;;;;;;5069135;28;20461;-68
2021/01/04 13:20:47;;;;;;;40.63;21.53;;;;;;;;;;5073641;28;20465;-69
2021/01/04 13:23:14;;;;;;;42.40;23.63;;;;;;;;;;5067104;28;20870;-69
2021/01/04 13:25:41;;;;;;;45.40;21.93;;;;;;;;;;5068080;28;21100;-68
2021/01/04 13:28:08;;;;;;;36.50;19.60;;;;;;;;;;5066110;28;20476;-69
2021/01/04 13:30:35;;;;;;;46.87;22.43;;;;;;;;;;5072922;28;20456;-68
2021/01/04 13:33:01;;;;;;;38.37;21.37;;;;;;;;;;5065250;28;20508;-68
2021/01/04 13:35:28;;;;;;;38.13;22.30;;;;;;;;;;5082662;28;20445;-69
2021/01/04 13:37:55;;;;;;;38.40;19.67;;;;;;;;;;5065801;28;20555;-68
2021/01/04 13:40:23;;;;;;;38.93;19.80;;;;;;;;;;5065911;28;20502;-70
2021/01/04 13:42:49;;;;;;;39.37;21.20;;;;;;;;;;5068581;28;20620;-69
2021/01/04 13:45:16;;;;;;;41.63;20.20;;;;;;;;;;5069416;28;20458;-69
2021/01/04 13:47:43;;;;;;;49.40;22.10;;;;;;;;;;5066260;28;20488;-68
2021/01/04 13:50:11;;;;;;;42.30;21.20;;;;;;;;;;5063537;28;20453;-69
2021/01/04 13:52:38;;;;;;;45.77;22.90;;;;;;;;;;5063651;28;20484;-68
2021/01/04 13:55:05;;;;;;;38.03;20.80;;;;;;;;;;5066352;28;20452;-69
2021/01/04 13:57:32;;;;;;;35.70;20.63;;;;;;;;;;5059108;28;20507;-67
2021/01/04 13:59:59;;;;;;;38.60;21.77;;;;;;;;;;5064441;28;20460;-68
2021/01/04 14:02:25;;;;;;;44.53;22.27;;;;;;;;;;5068571;28;20437;-69
2021/01/04 14:04:52;;;;;;;38.67;19.87;;;;;;;;;;5072524;28;21340;-68
2021/01/04 14:07:19;;;;;;;41.37;19.77;;;;;;;;;;5069585;28;20469;-69
2021/01/04 14:09:48;;;;;;;42.13;23.27;;;;;;;;;;5059396;28;20467;-69
2021/01/04 14:12:15;;;;;;;38.50;19.93;;;;;;;;;;5064144;28;21064;-68
2021/01/04 14:14:42;;;;;;;41.03;21.10;;;;;;;;;;5061899;28;20457;-68
2021/01/04 14:17:09;;;;;;;38.87;21.13;;;;;;;;;;5061643;28;20485;-69
2021/01/04 14:19:35;;;;;;;43.50;21.00;;;;;;;;;;5060668;28;20953;-69
2021/01/04 14:22:02;;;;;;;42.40;22.70;;;;;;;;;;5064979;28;21061;-69
2021/01/04 14:24:29;;;;;;;35.43;19.27;;;;;;;;;;5051634;28;20596;-69
2021/01/04 14:26:57;;;;;;;39.47;20.37;;;;;;;;;;5061012;28;20483;-69
2021/01/04 14:29:24;;;;;;;44.20;21.70;;;;;;;;;;5057184;28;20493;-69
2021/01/04 14:31:51;;;;;;;41.00;21.87;;;;;;;;;;5062170;28;20750;-70
2021/01/04 14:34:18;;;;;;;43.83;22.63;;;;;;;;;;5058034;28;20991;-68
2021/01/04 14:36:45;;;;;;;45.73;21.60;;;;;;;;;;5056421;28;20479;-69
2021/01/04 14:39:12;;;;;;;47.60;22.73;;;;;;;;;;5052855;28;20459;-69